Time;durP1;ratioP1;P1;durP2;ratioP2;P2;SDS_P1;SDS_P2;PMS_P1;PMS_P2;Temp;Humidity;BMP_temperature;BMP_pressure;BME280_temperature;BME280_humidity;BME280_pressure;Samples;Min_cycle;Max_cycle;Signal;HPM_P1;HPM_P2
2021/11/08 00:02:06;;;;;;;14.68;6.92;;;;;;;7.70;83.60;100163.28;1565761;88;26246;-85
2021/11/08 00:04:34;;;;;;;9.63;5.90;;;;;;;7.71;83.66;100166.30;1613665;88;25841;-85
2021/11/08 00:07:03;;;;;;;13.65;5.78;;;;;;;7.72;83.66;100175.09;1572833;88;27581;-85
2021/11/08 00:09:30;;;;;;;16.27;6.30;;;;;;;7.73;83.77;100169.61;1570745;88;25960;-84
2021/11/08 00:11:58;;;;;;;12.50;5.17;;;;;;;7.75;83.72;100172.08;1569917;88;25413;-85
2021/11/08 00:14:26;;;;;;;11.68;6.10;;;;;;;7.76;83.83;100175.09;1617626;87;25882;-85
2021/11/08 00:17:12;;;;;;;14.73;7.40;;;;;;;7.75;83.76;100174.75;1571293;88;25911;-84
2021/11/08 00:22:08;;;;;;;14.58;7.40;;;;;;;7.72;83.78;100176.42;1618111;88;25827;-85
2021/11/08 00:24:38;;;;;;;16.10;7.15;;;;;;;7.67;83.86;100176.16;1617612;87;25801;-84
2021/11/08 00:27:05;;;;;;;15.43;8.03;;;;;;;7.65;83.93;100181.67;1571355;88;26661;-85
2021/11/08 00:29:34;;;;;;;14.45;7.60;;;;;;;7.63;83.85;100178.85;1568704;88;26402;-85
2021/11/08 00:32:01;;;;;;;13.08;7.55;;;;;;;7.64;83.95;100181.33;1615229;88;27521;-85
2021/11/08 00:34:29;;;;;;;16.60;7.37;;;;;;;7.66;84.21;100183.81;1608007;88;25394;-84
2021/11/08 00:36:56;;;;;;;15.13;6.97;;;;;;;7.67;84.38;100182.81;1577300;88;26071;-85
2021/11/08 00:39:23;;;;;;;13.75;7.40;;;;;;;7.66;84.52;100191.31;1574925;88;26210;-85
2021/11/08 00:41:50;;;;;;;17.42;8.23;;;;;;;7.66;84.62;100188.64;1617734;88;25768;-85
2021/11/08 00:44:17;;;;;;;12.65;6.87;;;;;;;7.66;84.66;100190.47;1598836;88;27606;-85
2021/11/08 00:46:45;;;;;;;11.28;6.83;;;;;;;7.67;84.98;100196.14;1577991;88;26015;-84
2021/11/08 00:49:14;;;;;;;14.05;7.65;;;;;;;7.67;85.06;100194.81;1557745;88;25971;-85
2021/11/08 00:51:44;;;;;;;10.38;6.42;;;;;;;7.67;84.85;100196.14;1620629;88;25936;-84
2021/11/08 00:54:12;;;;;;;16.75;7.80;;;;;;;7.67;84.89;100200.14;1614252;88;26547;-85
2021/11/08 00:56:42;;;;;;;13.22;8.10;;;;;;;7.68;84.90;100205.29;1578262;87;27485;-85
2021/11/08 00:59:12;;;;;;;13.70;7.70;;;;;;;7.68;84.96;100199.95;1594525;88;26522;-85
2021/11/08 01:01:38;;;;;;;15.53;7.85;;;;;;;7.68;84.99;100200.45;1620971;88;25838;-84
2021/11/08 01:04:06;;;;;;;14.83;6.97;;;;;;;7.66;85.06;100191.31;1620949;88;26345;-84
2021/11/08 01:06:34;;;;;;;11.97;7.15;;;;;;;7.66;85.42;100193.98;1589714;88;25867;-85
2021/11/08 01:09:01;;;;;;;16.65;7.40;;;;;;;7.63;85.32;100200.98;1588843;88;28232;-85
2021/11/08 01:11:28;;;;;;;16.35;8.05;;;;;;;7.61;85.18;100197.66;1620665;88;25916;-84
2021/11/08 01:13:55;;;;;;;10.50;6.67;;;;;;;7.61;85.34;100201.66;1621160;87;26475;-85
2021/11/08 01:16:25;;;;;;;12.73;7.58;;;;;;;7.61;85.85;100197.66;1578064;88;25812;-84
2021/11/08 01:18:53;;;;;;;14.03;7.33;;;;;;;7.61;85.54;100211.52;1578042;88;25515;-85
2021/11/08 01:21:19;;;;;;;10.38;7.53;;;;;;;7.61;85.57;100202.19;1620861;88;27542;-85
2021/11/08 01:23:46;;;;;;;11.80;7.45;;;;;;;7.60;85.72;100206.69;1598778;88;26499;-85
2021/11/08 01:26:15;;;;;;;15.15;7.92;;;;;;;7.61;85.69;100208.86;1564676;88;26080;-84
2021/11/08 01:28:48;;;;;;;18.25;9.85;;;;;;;7.60;85.65;100209.84;1569168;89;25885;-84
2021/11/08 01:31:17;;;;;;;17.30;8.48;;;;;;;7.58;85.70;100211.36;1610553;88;26606;-84
2021/11/08 01:33:49;;;;;;;19.00;8.83;;;;;;;7.58;85.78;100213.20;1621559;88;27464;-84
2021/11/08 01:36:16;;;;;;;18.32;8.50;;;;;;;7.58;86.10;100214.53;1573818;88;25917;-85
2021/11/08 01:38:47;;;;;;;15.78;8.50;;;;;;;7.55;86.42;100211.70;1592866;88;26284;-85
2021/11/08 01:41:18;;;;;;;;;;;;;;;7.56;86.25;100216.05;1619962;87;25940;-84
2021/11/08 01:43:47;;;;;;;13.30;7.58;;;;;;;7.56;86.27;100213.87;1592470;88;26094;-84
2021/11/08 01:46:15;;;;;;;13.08;8.40;;;;;;;7.51;86.44;100209.56;1592348;88;27490;-84
2021/11/08 01:48:42;;;;;;;12.88;7.30;;;;;;;7.52;86.46;100216.08;1612562;88;25857;-85
2021/11/08 01:51:10;;;;;;;13.55;6.42;;;;;;;7.53;86.39;100208.89;1616717;88;25595;-84
2021/11/08 01:53:40;;;;;;;14.68;6.97;;;;;;;7.53;86.28;100208.89;1632993;87;26448;-84
2021/11/08 01:56:08;;;;;;;12.37;7.33;;;;;;;7.51;86.11;100214.41;1586406;89;25890;-84
2021/11/08 01:58:36;;;;;;;14.33;7.47;;;;;;;7.51;86.36;100215.73;1583676;87;27457;-85
2021/11/08 02:01:04;;;;;;;12.55;6.83;;;;;;;7.51;86.38;100213.06;1620598;88;25931;-84
2021/11/08 02:03:32;;;;;;;16.95;7.67;;;;;;;7.51;86.61;100217.06;1598915;88;25842;-85
2021/11/08 02:05:59;;;;;;;17.10;7.75;;;;;;;7.50;86.58;100222.09;1617875;88;25804;-84
2021/11/08 02:08:27;;;;;;;12.73;7.72;;;;;;;7.52;86.67;100223.23;1596933;88;25440;-84
2021/11/08 02:10:56;;;;;;;21.60;9.10;;;;;;;7.52;86.77;100225.41;1596813;88;28427;-85
2021/11/08 02:13:25;;;;;;;18.02;8.00;;;;;;;7.53;86.74;100223.05;1571673;88;25929;-84
2021/11/08 02:15:52;;;;;;;9.43;6.92;;;;;;;7.55;86.54;100232.19;1621173;87;25843;-84
2021/11/08 02:18:21;;;;;;;13.08;7.78;;;;;;;7.55;86.59;100230.36;1593427;88;25881;-85
2021/11/08 02:20:50;;;;;;;15.32;7.60;;;;;;;7.56;86.52;100240.03;1575970;88;26053;-84
2021/11/08 02:23:19;;;;;;;11.00;7.47;;;;;;;7.59;86.70;100233.53;1573841;88;27602;-84
2021/11/08 02:25:48;;;;;;;15.83;6.87;;;;;;;7.59;86.78;100236.19;1612126;88;25961;-85
2021/11/08 02:28:17;;;;;;;14.18;7.05;;;;;;;7.59;86.64;100240.99;1621311;86;25948;-84
2021/11/08 02:30:44;;;;;;;12.85;7.67;;;;;;;7.60;86.52;100229.84;1617227;86;26544;-85
2021/11/08 02:33:16;;;;;;;16.02;7.85;;;;;;;7.61;86.46;100224.32;1594664;86;26080;-85
2021/11/08 02:35:44;;;;;;;13.48;7.45;;;;;;;7.65;86.49;100230.15;1600191;88;27491;-84
2021/11/08 02:38:29;;;;;;;12.82;7.10;;;;;;;7.63;86.47;100227.64;1605332;87;25759;-84
2021/11/08 02:40:59;;;;;;;11.53;7.17;;;;;;;7.64;86.65;100232.47;1609231;87;25891;-84
2021/11/08 02:43:27;;;;;;;13.70;7.15;;;;;;;7.63;86.49;100232.16;1579220;87;25850;-84
2021/11/08 02:46:05;;;;;;;12.47;7.12;;;;;;;7.64;86.44;100233.80;1631638;87;25910;-84
2021/11/08 02:48:26;;;;;;;13.20;7.03;;;;;;;7.66;86.45;100236.63;1611705;87;27096;-85
2021/11/08 02:51:03;;;;;;;15.18;6.92;;;;;;;7.68;86.35;100232.44;1610986;87;25869;-84
2021/11/08 02:53:25;;;;;;;16.95;8.05;;;;;;;7.67;86.47;100235.64;1595635;87;26147;-84
2021/11/08 02:55:52;;;;;;;15.10;7.40;;;;;;;7.68;86.28;100241.77;1631672;87;25882;-85
2021/11/08 02:58:20;;;;;;;18.73;7.80;;;;;;;7.68;86.33;100241.27;1595542;87;25379;-84
2021/11/08 03:00:49;;;;;;;13.05;7.72;;;;;;;7.68;86.39;100248.44;1579064;87;28239;-85
2021/11/08 03:03:16;;;;;;;10.18;6.62;;;;;;;7.69;86.23;100254.11;1597717;89;26471;-85
2021/11/08 03:05:44;;;;;;;11.70;7.08;;;;;;;7.70;86.20;100265.08;1599034;89;25886;-84
2021/11/08 03:08:12;;;;;;;11.00;6.67;;;;;;;7.70;86.19;100256.59;1570807;90;25923;-85
2021/11/08 03:10:40;;;;;;;12.33;7.62;;;;;;;7.71;86.14;100264.09;1543126;90;25893;-84
2021/11/08 03:13:17;;;;;;;12.85;6.67;;;;;;;7.73;86.21;100268.25;1573058;89;27499;-84
2021/11/08 03:16:07;;;;;;;12.53;7.25;;;;;;;7.74;86.08;100282.41;1580399;88;25864;-84
2021/11/08 03:18:26;;;;;;;13.13;6.55;;;;;;;7.74;86.05;100278.41;1597493;88;26469;-84
2021/11/08 03:20:43;;;;;;;10.90;6.37;;;;;;;7.73;86.31;100275.41;1551838;89;25931;-84
2021/11/08 03:23:12;;;;;;;11.10;6.62;;;;;;;7.71;86.30;100282.26;1558149;87;26077;-85
2021/11/08 03:25:46;;;;;;;13.62;7.03;;;;;;;7.71;86.14;100283.59;1598140;88;27524;-84
2021/11/08 03:28:09;;;;;;;16.25;7.75;;;;;;;7.72;86.23;100289.23;1605874;88;26161;-85
2021/11/08 03:30:41;;;;;;;12.55;6.95;;;;;;;7.73;86.16;100286.91;1611103;88;25841;-84
2021/11/08 03:33:11;;;;;;;14.65;7.58;;;;;;;7.74;86.29;100299.22;1558868;89;25869;-85
2021/11/08 03:35:39;;;;;;;18.95;7.87;;;;;;;7.74;86.18;100292.55;1574450;88;25925;-84
2021/11/08 03:38:09;;;;;;;10.08;7.28;;;;;;;7.75;86.17;100294.23;1595036;88;27595;-84
2021/11/08 03:40:39;;;;;;;14.38;7.72;;;;;;;7.76;86.19;100295.88;1609451;88;26276;-85
2021/11/08 03:43:11;;;;;;;14.00;7.90;;;;;;;7.78;86.36;100299.72;1612355;88;34947;-85
2021/11/08 03:45:40;;;;;;;11.88;8.00;;;;;;;7.77;86.24;100297.55;1623570;87;25946;-85
2021/11/08 03:48:09;;;;;;;13.10;8.20;;;;;;;7.77;86.25;100304.21;1606656;88;25987;-85
2021/11/08 03:50:37;;;;;;;15.68;8.13;;;;;;;7.78;86.26;100300.52;1567503;88;27518;-84
2021/11/08 03:53:04;;;;;;;11.28;7.72;;;;;;;7.77;86.34;100306.88;1588920;88;25858;-85
2021/11/08 03:55:31;;;;;;;14.78;8.78;;;;;;;7.78;86.23;100313.85;1595133;88;25938;-84
2021/11/08 03:57:59;;;;;;;17.00;8.18;;;;;;;7.77;86.18;100304.21;1611442;88;25890;-85
2021/11/08 04:00:29;;;;;;;18.23;9.55;;;;;;;7.77;86.13;100305.55;1563560;88;25396;-85
2021/11/08 04:02:58;;;;;;;14.40;8.70;;;;;;;7.79;86.29;100308.02;1567719;89;27657;-85
2021/11/08 04:05:29;;;;;;;17.42;9.28;;;;;;;7.77;86.27;100308.20;1608769;88;25972;-85
2021/11/08 04:07:56;;;;;;;15.08;8.75;;;;;;;7.76;86.27;100311.06;1608778;88;26477;-85
2021/11/08 04:10:24;;;;;;;15.03;8.58;;;;;;;7.76;86.24;100315.87;1610838;88;26243;-85
2021/11/08 04:12:52;;;;;;;13.00;7.83;;;;;;;7.77;86.15;100321.54;1599618;88;25341;-84
2021/11/08 04:15:22;;;;;;;16.32;8.90;;;;;;;7.78;86.12;100321.85;1587942;88;27555;-84
2021/11/08 04:17:49;;;;;;;19.03;10.30;;;;;;;7.78;86.06;100327.19;1606870;88;25879;-84
2021/11/08 04:20:23;;;;;;;13.85;8.00;;;;;;;7.78;86.20;100325.84;1585627;88;25820;-84
2021/11/08 04:25:27;;;;;;;11.48;8.68;;;;;;;7.81;86.13;100322.01;1746010;81;26009;-85
2021/11/08 04:27:54;;;;;;;12.35;9.08;;;;;;;7.77;86.01;100334.03;1688549;81;25855;-84
2021/11/08 04:30:22;;;;;;;14.13;8.18;;;;;;;7.77;85.96;100330.03;1662824;82;28237;-84
2021/11/08 04:33:43;;;;;;;17.55;9.25;;;;;;;7.78;85.92;100328.52;1717305;82;25838;-84
2021/11/08 04:38:13;;;;;;;14.83;8.38;;;;;;;7.79;85.89;100341.35;1566068;90;25885;-85
2021/11/08 04:51:13;;;;;;;14.38;10.93;;;;;;;7.79;85.83;100346.69;1652340;85;25796;-85
2021/11/08 05:21:19;;;;;;;13.78;8.38;;;;;;;7.76;85.59;100359.86;1600038;86;25797;-84
2021/11/08 05:31:47;;;;;;;23.35;12.25;;;;;;;7.71;85.57;100366.23;1611452;86;25783;-85
2021/11/08 05:34:17;;;;;;;13.60;8.15;;;;;;;7.73;85.69;100371.38;1594670;85;26007;-85
2021/11/08 05:36:45;;;;;;;12.95;7.80;;;;;;;7.73;85.65;100374.05;1671755;84;27507;-85
2021/11/08 05:39:13;;;;;;;20.60;10.35;;;;;;;7.74;85.69;100383.20;1675778;84;25885;-85
2021/11/08 05:41:41;;;;;;;14.10;9.25;;;;;;;7.73;85.61;100384.72;1590942;85;25867;-86
2021/11/08 05:44:09;;;;;;;14.05;8.60;;;;;;;7.71;85.64;100387.56;1609498;86;25984;-85
2021/11/08 05:46:36;;;;;;;14.85;9.45;;;;;;;7.73;85.69;100383.37;1670369;84;25899;-86
2021/11/08 05:49:04;;;;;;;15.45;8.08;;;;;;;7.73;85.69;100384.22;1675363;84;28365;-85
2021/11/08 05:51:31;;;;;;;16.35;7.85;;;;;;;7.75;85.67;100392.03;1649996;85;25880;-86
2021/11/08 05:53:58;;;;;;;19.62;8.50;;;;;;;7.77;85.65;100400.69;1647735;85;25830;-86
2021/11/08 05:56:31;;;;;;;15.03;7.97;;;;;;;7.76;85.58;100402.52;1661662;85;26501;-86
2021/11/08 06:50:44;;;;;;;15.40;7.60;;;;;;;7.71;87.44;100471.55;1648281;86;26613;-85
2021/11/08 06:53:18;;;;;;;17.37;7.70;;;;;;;7.70;87.46;100467.20;1659672;85;25874;-85
2021/11/08 06:55:40;;;;;;;12.07;7.25;;;;;;;7.71;87.81;100468.04;1629034;85;28258;-86
2021/11/08 06:58:12;;;;;;;23.62;8.48;;;;;;;7.70;87.98;100466.36;1619814;85;25818;-85
2021/11/08 07:00:35;;;;;;;15.65;7.92;;;;;;;7.68;88.14;100475.88;1667924;84;26044;-84
2021/11/08 07:03:02;;;;;;;15.48;8.13;;;;;;;7.69;87.87;100476.71;1681392;84;25888;-86
2021/11/08 07:05:30;;;;;;;13.58;8.03;;;;;;;7.68;87.88;100477.20;1642006;85;26071;-85
2021/11/08 07:07:57;;;;;;;14.53;8.20;;;;;;;7.70;88.01;100485.02;1638170;85;27932;-85
2021/11/08 07:10:24;;;;;;;13.00;7.78;;;;;;;7.71;88.06;100485.36;1672539;85;25797;-85
2021/11/08 07:12:52;;;;;;;15.23;8.23;;;;;;;7.70;88.40;100483.69;1650191;85;25917;-86
2021/11/08 07:15:20;;;;;;;15.10;7.90;;;;;;;7.67;88.61;100484.05;1652047;84;25767;-85
2021/11/08 07:17:49;;;;;;;21.65;9.85;;;;;;;7.64;88.73;100489.22;1645381;85;25806;-86
2021/11/08 07:20:19;;;;;;;29.77;14.07;;;;;;;7.65;88.71;100494.89;1663637;84;27653;-85
2021/11/08 07:22:46;;;;;;;12.70;8.58;;;;;;;7.67;88.83;100492.05;1662796;84;25943;-85
2021/11/08 07:25:14;;;;;;;12.23;6.85;;;;;;;7.68;89.03;100491.02;1637870;84;26000;-85
2021/11/08 07:27:41;;;;;;;11.85;8.33;;;;;;;7.68;89.10;100495.02;1604414;85;25940;-84
2021/11/08 07:30:10;;;;;;;13.93;8.70;;;;;;;7.68;89.24;100499.86;1626950;86;26006;-85
2021/11/08 07:32:37;;;;;;;17.52;8.55;;;;;;;7.69;89.33;100502.03;1653845;86;28262;-85
2021/11/08 07:35:06;;;;;;;15.58;8.73;;;;;;;7.70;89.12;100511.19;1588407;86;25978;-85
2021/11/08 07:37:33;;;;;;;17.30;8.43;;;;;;;7.75;89.30;100507.52;1628223;86;25339;-84
2021/11/08 07:40:00;;;;;;;12.75;8.38;;;;;;;7.76;89.19;100513.17;1663022;85;25367;-85
2021/11/08 07:42:27;;;;;;;15.78;8.65;;;;;;;7.77;89.36;100521.52;1663035;85;26006;-85
2021/11/08 07:44:54;;;;;;;14.73;9.05;;;;;;;7.80;89.44;100521.67;1610116;85;28396;-85
2021/11/08 07:47:21;;;;;;;12.30;8.10;;;;;;;7.80;89.54;100515.82;1609277;86;25870;-85
2021/11/08 07:49:48;;;;;;;12.03;8.35;;;;;;;7.79;89.55;100521.33;1662325;85;25839;-85
2021/11/08 07:52:15;;;;;;;15.93;9.00;;;;;;;7.78;89.30;100530.34;1662948;85;25845;-85
2021/11/08 07:54:42;;;;;;;12.40;6.78;;;;;;;7.80;89.26;100527.02;1611179;85;25844;-85
2021/11/08 07:57:09;;;;;;;14.55;8.13;;;;;;;7.83;89.58;100536.51;1646726;85;28067;-85
2021/11/08 07:59:37;;;;;;;16.25;7.42;;;;;;;7.83;89.48;100533.31;1661531;85;26151;-85
2021/11/08 08:02:04;;;;;;;14.23;9.30;;;;;;;7.85;89.58;100531.84;1662397;85;25976;-85
2021/11/08 08:04:31;;;;;;;14.93;8.23;;;;;;;7.84;89.69;100540.33;1594480;86;25379;-86
2021/11/08 08:06:58;;;;;;;11.48;7.92;;;;;;;7.86;89.87;100541.48;1632000;86;25870;-85
2021/11/08 08:09:25;;;;;;;17.82;9.25;;;;;;;7.86;90.06;100536.15;1634161;86;27546;-86
2021/11/08 08:11:52;;;;;;;16.77;9.33;;;;;;;7.87;90.14;100543.97;1662976;85;25857;-85
2021/11/08 08:14:19;;;;;;;16.75;9.68;;;;;;;7.89;90.24;100545.16;1648573;86;26161;-85
2021/11/08 08:16:46;;;;;;;13.30;8.95;;;;;;;7.88;90.84;100546.14;1600780;86;25874;-86
2021/11/08 08:19:14;;;;;;;17.48;11.05;;;;;;;7.87;90.72;100550.64;1663033;85;26206;-85
2021/11/08 08:21:41;;;;;;;14.70;9.55;;;;;;;7.86;90.78;100550.81;1671668;85;27447;-85
2021/11/08 08:24:08;;;;;;;13.83;8.55;;;;;;;7.86;90.80;100554.32;1651546;85;26198;-86
2021/11/08 08:26:39;;;;;;;15.38;9.70;;;;;;;7.86;91.00;100552.15;1627769;86;26451;-86
2021/11/08 08:29:08;;;;;;;13.45;9.93;;;;;;;7.87;91.10;100553.30;1650366;86;25860;-85
2021/11/08 08:31:39;;;;;;;13.68;9.03;;;;;;;7.87;91.20;100549.83;1654314;86;26157;-86
2021/11/08 08:34:10;;;;;;;12.53;8.25;;;;;;;7.89;91.34;100557.96;1631758;85;27542;-85
2021/11/08 08:36:38;;;;;;;17.05;9.10;;;;;;;7.89;91.59;100557.16;1602796;85;25938;-85
2021/11/08 08:39:08;;;;;;;17.00;10.58;;;;;;;7.90;91.39;100561.47;1657058;84;26601;-85
2021/11/08 08:41:36;;;;;;;14.20;9.88;;;;;;;7.90;92.26;100566.80;1656460;86;25901;-85
2021/11/08 08:44:04;;;;;;;13.62;9.78;;;;;;;7.88;91.80;100561.65;1649304;85;25905;-85
2021/11/08 08:46:31;;;;;;;12.15;9.40;;;;;;;7.89;92.20;100573.16;1598034;85;28158;-86
2021/11/08 08:48:59;;;;;;;15.00;9.68;;;;;;;7.89;92.08;100573.97;1620992;86;26027;-85
2021/11/08 08:51:26;;;;;;;11.03;8.43;;;;;;;7.89;92.07;100577.16;1663784;86;26157;-85
2021/11/08 08:53:53;;;;;;;13.10;8.83;;;;;;;7.91;92.46;100575.16;1639120;85;25877;-86
2021/11/08 08:56:22;;;;;;;16.25;10.30;;;;;;;7.92;92.29;100584.31;1633346;86;25853;-86
2021/11/08 08:58:54;;;;;;;16.48;10.35;;;;;;;7.97;92.46;100594.47;1638971;86;27548;-86
2021/11/08 09:01:24;;;;;;;14.93;9.55;;;;;;;8.01;92.77;100587.78;1654396;86;26506;-86
2021/11/08 09:03:52;;;;;;;15.88;10.72;;;;;;;8.03;92.75;100597.29;1632013;86;25927;-86
2021/11/08 09:06:20;;;;;;;20.15;11.78;;;;;;;8.05;92.77;100595.78;1629611;85;25910;-86
2021/11/08 09:08:47;;;;;;;18.87;12.37;;;;;;;8.07;92.50;100601.77;1639334;86;25892;-85
2021/11/08 09:11:14;;;;;;;13.88;10.10;;;;;;;8.08;92.61;100607.45;1631592;85;27564;-85
2021/11/08 09:13:41;;;;;;;11.90;10.50;;;;;;;8.08;92.67;100616.30;1634387;85;25835;-85
2021/11/08 09:16:12;;;;;;;11.68;9.23;;;;;;;8.09;92.30;100623.77;1615966;86;25393;-86
2021/11/08 09:18:44;;;;;;;24.35;18.20;;;;;;;8.09;92.59;100621.11;1621188;86;25798;-85
2021/11/08 09:21:12;;;;;;;19.32;12.70;;;;;;;8.07;92.43;100627.95;1660279;86;25893;-86
2021/11/08 09:23:40;;;;;;;18.98;11.60;;;;;;;8.06;92.49;100636.14;1659140;85;28202;-85
2021/11/08 09:26:08;;;;;;;16.42;11.03;;;;;;;8.05;92.66;100633.13;1634067;85;25956;-86
2021/11/08 09:28:35;;;;;;;12.88;9.78;;;;;;;8.07;92.71;100628.45;1639670;86;26052;-85
2021/11/08 09:31:03;;;;;;;16.05;11.88;;;;;;;8.08;92.99;100632.80;1657183;85;25859;-85
2021/11/08 09:33:31;;;;;;;15.13;11.20;;;;;;;8.09;92.95;100629.95;1645690;85;25940;-85
2021/11/08 09:36:03;;;;;;;14.20;10.40;;;;;;;8.12;92.88;100634.12;1616882;84;27657;-86
2021/11/08 09:38:27;;;;;;;15.32;11.33;;;;;;;8.13;93.14;100640.61;1634139;86;25809;-85
2021/11/08 09:40:54;;;;;;;15.88;11.20;;;;;;;8.12;93.10;100637.63;1650647;85;25927;-85
2021/11/08 09:43:24;;;;;;;19.30;13.48;;;;;;;8.12;92.95;100642.96;1648866;85;25826;-85
2021/11/08 09:45:52;;;;;;;17.10;13.43;;;;;;;8.15;93.12;100639.94;1666896;84;25895;-86
2021/11/08 09:48:21;;;;;;;19.30;11.33;;;;;;;8.20;93.17;100638.09;1638735;86;27477;-85
2021/11/08 09:50:49;;;;;;;14.45;9.53;;;;;;;8.22;93.04;100648.94;1641266;85;26265;-85
2021/11/08 09:53:18;;;;;;;12.53;10.85;;;;;;;8.21;92.69;100639.77;1620744;85;26453;-85
2021/11/08 09:55:46;;;;;;;14.33;10.72;;;;;;;8.21;92.83;100644.59;1618174;87;26576;-85
2021/11/08 09:58:14;;;;;;;25.95;14.85;;;;;;;8.20;92.87;100644.27;1661209;84;25872;-85
2021/11/08 10:00:50;;;;;;;36.77;18.67;;;;;;;8.19;92.88;100644.45;1667401;85;27626;-85
2021/11/08 10:03:23;;;;;;;46.95;24.10;;;;;;;8.19;92.86;100650.59;1695213;84;25954;-85
2021/11/08 10:05:53;;;;;;;64.70;32.70;;;;;;;8.21;93.15;100651.78;1665744;84;25937;-86
2021/11/08 10:08:31;;;;;;;53.08;26.27;;;;;;;8.24;93.11;100652.76;1641910;85;25573;-85
2021/11/08 10:11:07;;;;;;;37.13;18.82;;;;;;;8.27;93.06;100657.80;1683222;83;25797;-85
2021/11/08 10:13:37;;;;;;;41.80;21.80;;;;;;;8.30;93.10;100654.77;1678836;84;27524;-85
2021/11/08 10:16:16;;;;;;;29.40;16.67;;;;;;;8.32;92.98;100661.61;1645859;84;25844;-85
2021/11/08 10:18:47;;;;;;;25.65;16.20;;;;;;;8.35;93.00;100663.11;1639302;85;26021;-85
2021/11/08 10:21:27;;;;;;;29.37;20.25;;;;;;;8.37;93.12;100669.95;1684356;84;25467;-85
2021/11/08 10:23:57;;;;;;;16.95;12.23;;;;;;;8.40;92.95;100660.25;1670503;85;25914;-85
2021/11/08 10:26:29;;;;;;;28.37;16.10;;;;;;;8.41;92.96;100667.27;1660427;85;27629;-86
2021/11/08 10:29:02;;;;;;;18.52;12.13;;;;;;;8.43;92.85;100659.08;1666515;84;25805;-85
2021/11/08 10:31:33;;;;;;;16.27;9.03;;;;;;;8.45;93.05;100660.58;1659109;85;26555;-85
2021/11/08 10:34:03;;;;;;;;;;;;;;;8.48;93.06;100664.25;1649259;86;25847;-85
2021/11/08 10:36:30;;;;;;;12.97;11.40;;;;;;;8.49;93.09;100671.23;1645053;85;26152;-86
2021/11/08 10:39:00;;;;;;;19.50;13.70;;;;;;;8.49;93.43;100667.73;1635027;86;27574;-86
2021/11/08 10:41:32;;;;;;;10.40;7.60;;;;;;;8.48;93.22;100668.25;1663241;85;25866;-85
2021/11/08 10:44:22;;;;;;;15.90;10.90;;;;;;;8.47;93.12;100666.58;1612648;86;25927;-85
2021/11/08 10:47:02;;;;;;;10.18;7.78;;;;;;;8.47;93.48;100668.41;1632018;87;26192;-86
2021/11/08 10:49:38;;;;;;;12.15;8.70;;;;;;;8.48;93.54;100679.42;1651590;84;25904;-85
2021/11/08 10:52:06;;;;;;;12.40;8.30;;;;;;;8.48;93.48;100674.92;1641706;86;28131;-86
2021/11/08 10:54:40;;;;;;;14.70;11.12;;;;;;;8.50;93.75;100673.41;1625737;86;25887;-84
2021/11/08 10:57:22;;;;;;;15.28;10.72;;;;;;;8.48;93.45;100678.93;1617572;88;25899;-85
2021/11/08 10:59:53;;;;;;;20.45;12.55;;;;;;;8.47;93.46;100678.59;1639543;85;26521;-86
2021/11/08 11:02:22;;;;;;;;;;;;;;;8.45;93.59;100671.75;1663031;85;25754;-85
2021/11/08 11:04:56;;;;;;;17.67;11.25;;;;;;;8.45;93.57;100677.09;1661320;85;27626;-86
2021/11/08 11:07:28;;;;;;;18.02;11.68;;;;;;;8.44;93.64;100675.44;1640208;85;25843;-85
2021/11/08 11:10:15;;;;;;;28.92;18.23;;;;;;;8.49;93.80;100674.40;1662229;85;25393;-85
2021/11/08 11:12:46;;;;;;;33.13;20.17;;;;;;;8.51;93.56;100681.24;1656985;85;25860;-85
2021/11/08 11:15:21;;;;;;;50.25;29.55;;;;;;;8.54;94.06;100681.41;1628980;86;25893;-85
2021/11/08 11:17:55;;;;;;;31.95;20.92;;;;;;;8.59;93.73;100684.90;1613656;86;27433;-85
2021/11/08 11:20:29;;;;;;;25.85;15.90;;;;;;;8.64;93.72;100685.23;1668329;85;26075;-87
2021/11/08 11:23:05;;;;;;;22.90;14.83;;;;;;;8.69;93.66;100691.70;1647115;86;25983;-85
2021/11/08 11:25:36;;;;;;;25.52;17.23;;;;;;;8.75;93.62;100689.67;1616931;85;26000;-86
2021/11/08 11:28:06;;;;;;;17.40;13.75;;;;;;;8.81;93.41;100693.51;1630650;86;25819;-85
2021/11/08 11:30:43;;;;;;;18.65;13.88;;;;;;;8.82;93.14;100690.66;1659413;86;27482;-85
2021/11/08 11:33:20;;;;;;;20.80;14.90;;;;;;;8.79;92.87;100685.65;1657972;86;26115;-85
2021/11/08 11:36:10;;;;;;;14.18;11.78;;;;;;;8.79;92.89;100682.98;1638203;84;25763;-85
2021/11/08 11:38:54;;;;;;;16.77;13.70;;;;;;;8.81;92.72;100681.49;1634249;86;25799;-86
2021/11/08 11:41:33;;;;;;;19.15;13.95;;;;;;;8.83;92.99;100687.48;1607301;86;25759;-85
2021/11/08 11:44:15;;;;;;;16.70;13.60;;;;;;;8.86;92.93;100680.45;1621481;87;27522;-85
2021/11/08 11:46:53;;;;;;;18.05;13.30;;;;;;;8.83;92.52;100681.63;1649652;86;25402;-86
2021/11/08 11:49:21;;;;;;;19.37;13.15;;;;;;;8.84;92.41;100691.81;1644578;86;25865;-86
2021/11/08 11:51:56;;;;;;;16.02;12.53;;;;;;;8.83;92.47;100686.16;1631828;85;26111;-86
2021/11/08 11:54:30;;;;;;;19.35;14.85;;;;;;;8.85;92.52;100693.00;1665347;85;26173;-86
2021/11/08 11:56:59;;;;;;;14.28;12.10;;;;;;;8.87;92.69;100691.48;1669165;85;28158;-86
2021/11/08 11:59:26;;;;;;;16.67;12.37;;;;;;;8.85;92.38;100699.67;1608443;86;25695;-85
2021/11/08 12:01:54;;;;;;;14.00;11.95;;;;;;;8.84;92.43;100703.33;1609173;86;25935;-86
2021/11/08 12:04:21;;;;;;;16.60;11.88;;;;;;;8.85;92.46;100702.84;1621600;85;26991;-85
2021/11/08 12:06:52;;;;;;;17.42;11.93;;;;;;;8.85;92.57;100709.02;1662645;85;25805;-86
2021/11/08 12:09:21;;;;;;;22.52;15.88;;;;;;;8.85;92.52;100709.52;1648621;86;28225;-86
2021/11/08 12:11:52;;;;;;;25.30;18.20;;;;;;;8.85;92.62;100704.17;1635878;86;26056;-86
2021/11/08 12:14:31;;;;;;;15.15;11.93;;;;;;;8.86;92.63;100712.00;1665925;86;26000;-86
2021/11/08 12:17:06;;;;;;;15.38;11.45;;;;;;;8.88;92.53;100717.16;1663612;85;25866;-85
2021/11/08 12:19:40;;;;;;;17.15;11.10;;;;;;;8.89;92.73;100720.18;1638611;85;25940;-87
2021/11/08 12:22:19;;;;;;;15.93;10.75;;;;;;;8.88;92.53;100715.83;1637425;85;27527;-85
2021/11/08 12:25:14;;;;;;;17.15;11.57;;;;;;;8.89;92.63;100716.17;1654318;86;25977;-85
2021/11/08 12:27:47;;;;;;;21.35;15.03;;;;;;;8.88;92.85;100723.34;1671180;84;25827;-85
2021/11/08 12:30:20;;;;;;;22.60;15.20;;;;;;;8.86;92.73;100732.04;1636363;85;26609;-86
2021/11/08 12:33:00;;;;;;;21.65;15.50;;;;;;;8.89;92.72;100724.19;1628403;85;26006;-85
2021/11/08 12:35:41;;;;;;;20.40;14.23;;;;;;;8.93;92.97;100728.17;1682250;84;27096;-85
2021/11/08 12:38:25;;;;;;;24.12;15.50;;;;;;;8.94;92.92;100729.33;1673673;84;26447;-86
2021/11/08 12:41:24;;;;;;;18.62;13.15;;;;;;;8.98;92.91;100727.17;1615949;85;25795;-86
2021/11/08 12:44:00;;;;;;;16.90;10.95;;;;;;;9.01;92.79;100729.47;1621166;86;25883;-85
2021/11/08 12:46:32;;;;;;;23.73;15.08;;;;;;;9.03;92.41;100724.78;1651282;86;25833;-86
2021/11/08 12:49:23;;;;;;;21.05;13.03;;;;;;;9.06;92.32;100725.79;1649844;85;27456;-86
2021/11/08 12:52:21;;;;;;;15.50;10.28;;;;;;;9.07;92.16;100727.44;1664061;85;25905;-85
2021/11/08 12:55:02;;;;;;;11.83;8.65;;;;;;;9.06;91.96;100733.31;1623749;85;25810;-85
2021/11/08 12:57:30;;;;;;;;;;;;;;;9.07;91.97;100736.30;1673118;84;26154;-86
2021/11/08 13:00:16;;;;;;;11.93;8.60;;;;;;;9.11;92.11;100732.80;1678664;85;25754;-85
2021/11/08 13:02:50;;;;;;;11.05;8.83;;;;;;;9.13;91.98;100742.80;1628360;85;27547;-85
2021/11/08 13:05:12;;;;;;;14.18;9.73;;;;;;;9.11;91.44;100745.63;1626533;85;25378;-85
2021/11/08 13:07:43;;;;;;;14.70;9.18;;;;;;;9.10;91.43;100745.31;1648075;85;26468;-86
2021/11/08 13:10:33;;;;;;;12.73;8.80;;;;;;;9.12;91.47;100743.80;1677537;84;25585;-85
2021/11/08 13:13:00;;;;;;;12.50;9.50;;;;;;;9.12;91.32;100749.98;1676190;84;26399;-85
2021/11/08 13:15:31;;;;;;;12.63;9.98;;;;;;;9.11;91.25;100756.84;1603556;86;28025;-85
2021/11/08 13:18:05;;;;;;;14.95;11.12;;;;;;;9.13;91.31;100762.31;1690647;83;25836;-85
2021/11/08 13:20:37;;;;;;;12.93;9.45;;;;;;;9.15;91.37;100760.83;1651841;85;25916;-85
2021/11/08 13:23:09;;;;;;;14.85;8.95;;;;;;;9.15;91.16;100768.31;1690519;84;26336;-85
2021/11/08 13:25:41;;;;;;;15.58;10.43;;;;;;;9.16;91.05;100762.48;1653406;84;26000;-85